Time;durP1;ratioP1;P1;durP2;ratioP2;P2;SDS_P1;SDS_P2;PMS_P1;PMS_P2;Temp;Humidity;BMP_temperature;BMP_pressure;BME280_temperature;BME280_humidity;BME280_pressure;Samples;Min_cycle;Max_cycle;Signal;HPM_P1;HPM_P2
2022/03/03 00:01:09;;;;;;;17.57;11.27;;;2.10;99.90;;;;;;6338625;22;20524;-47
2022/03/03 00:03:35;;;;;;;18.20;11.63;;;2.00;99.90;;;;;;6340050;22;20161;-46
2022/03/03 00:06:01;;;;;;;15.00;10.77;;;1.90;99.90;;;;;;6340191;22;20251;-46
2022/03/03 00:08:26;;;;;;;18.07;11.40;;;1.80;99.90;;;;;;6339793;22;20185;-46
2022/03/03 00:10:52;;;;;;;18.20;11.23;;;1.80;99.90;;;;;;6339706;22;20150;-45
2022/03/03 00:13:18;;;;;;;16.87;11.20;;;1.70;99.90;;;;;;6339931;22;20225;-45
2022/03/03 00:15:43;;;;;;;16.53;11.33;;;1.60;99.90;;;;;;6339725;22;20184;-46
2022/03/03 00:18:09;;;;;;;17.77;11.80;;;1.60;99.90;;;;;;6339517;22;20172;-46
2022/03/03 00:20:35;;;;;;;18.53;12.00;;;1.50;99.90;;;;;;6339745;22;20490;-45
2022/03/03 00:23:00;;;;;;;17.73;11.17;;;1.40;99.90;;;;;;6341008;22;20271;-48
2022/03/03 00:25:27;;;;;;;16.70;10.77;;;1.40;99.90;;;;;;6339237;22;20157;-47
2022/03/03 00:27:52;;;;;;;19.07;11.73;;;1.30;99.90;;;;;;6339066;22;20693;-47
2022/03/03 00:30:18;;;;;;;17.80;11.33;;;1.30;99.90;;;;;;6340236;22;20169;-47
2022/03/03 00:32:43;;;;;;;19.20;11.10;;;1.30;99.90;;;;;;6338963;22;20172;-48
2022/03/03 00:35:11;;;;;;;23.93;11.67;;;1.30;99.90;;;;;;6338853;22;20153;-48
2022/03/03 00:37:36;;;;;;;19.00;11.67;;;1.30;99.90;;;;;;6340423;22;20170;-48
2022/03/03 00:40:07;;;;;;;17.87;11.87;;;1.30;99.90;;;;;;6340460;22;20625;-48
2022/03/03 00:42:32;;;;;;;17.67;11.70;;;1.30;99.90;;;;;;6339337;22;20513;-47
2022/03/03 00:44:58;;;;;;;20.73;12.20;;;1.30;99.90;;;;;;6340464;22;20158;-46
2022/03/03 00:47:24;;;;;;;16.97;11.27;;;1.30;99.90;;;;;;6312604;22;20181;-48
2022/03/03 00:49:50;;;;;;;20.80;12.33;;;1.30;99.90;;;;;;6340351;22;20187;-46
2022/03/03 00:52:16;;;;;;;21.07;12.07;;;1.30;99.90;;;;;;6339006;22;20605;-48
2022/03/03 00:54:41;;;;;;;17.97;11.40;;;1.40;99.90;;;;;;6340235;22;20198;-48
2022/03/03 00:57:07;;;;;;;19.27;11.43;;;1.40;99.90;;;;;;6340346;22;20256;-48
2022/03/03 00:59:33;;;;;;;18.23;11.93;;;1.40;99.90;;;;;;6340760;22;20587;-49
2022/03/03 01:01:59;;;;;;;18.93;11.57;;;1.30;99.90;;;;;;6339290;22;20213;-47
2022/03/03 01:04:24;;;;;;;21.37;12.20;;;1.40;99.90;;;;;;6337525;22;20240;-45
2022/03/03 01:06:50;;;;;;;19.27;11.60;;;1.40;99.90;;;;;;6337584;22;20332;-45
2022/03/03 01:09:16;;;;;;;25.80;12.47;;;1.40;99.90;;;;;;6337705;22;20195;-44
2022/03/03 01:11:42;;;;;;;20.03;12.93;;;1.40;99.90;;;;;;6337690;22;20244;-45
2022/03/03 01:14:07;;;;;;;25.63;12.00;;;1.40;99.90;;;;;;6311716;22;20163;-45
2022/03/03 01:16:33;;;;;;;18.83;13.00;;;1.40;99.90;;;;;;6339441;22;20526;-46
2022/03/03 01:18:59;;;;;;;20.47;13.07;;;1.50;99.90;;;;;;6337655;22;20242;-44
2022/03/03 01:21:27;;;;;;;18.73;12.43;;;1.40;99.90;;;;;;6337611;22;20158;-47
2022/03/03 01:23:53;;;;;;;21.57;12.40;;;1.40;99.90;;;;;;6339315;22;20160;-48
2022/03/03 01:26:19;;;;;;;24.43;13.10;;;1.40;99.90;;;;;;6338906;22;20160;-49
2022/03/03 01:28:45;;;;;;;21.40;12.17;;;1.30;99.90;;;;;;6338114;22;20199;-48
2022/03/03 01:31:11;;;;;;;24.23;12.83;;;1.30;99.90;;;;;;6340578;22;20461;-48
2022/03/03 01:33:36;;;;;;;23.07;13.57;;;1.30;99.90;;;;;;6339795;22;20155;-49
2022/03/03 01:36:02;;;;;;;21.23;12.83;;;1.30;99.90;;;;;;6338656;22;20155;-48
2022/03/03 01:38:28;;;;;;;22.80;12.87;;;1.30;99.90;;;;;;6338607;22;20184;-48
2022/03/03 01:40:53;;;;;;;19.90;13.07;;;1.30;99.90;;;;;;6339178;22;20164;-49
2022/03/03 01:43:19;;;;;;;20.40;12.67;;;1.30;99.90;;;;;;6340829;22;20620;-47
2022/03/03 01:45:46;;;;;;;20.43;12.77;;;1.30;99.90;;;;;;6341555;22;20155;-49
2022/03/03 01:48:11;;;;;;;23.03;12.13;;;1.20;99.90;;;;;;6340778;22;20495;-48
2022/03/03 01:50:37;;;;;;;19.93;12.67;;;1.20;99.90;;;;;;6339757;22;20385;-48
2022/03/03 01:53:03;;;;;;;23.40;13.40;;;1.20;99.90;;;;;;6339224;22;20181;-48
2022/03/03 01:55:29;;;;;;;22.97;13.57;;;1.20;99.90;;;;;;6339006;22;20463;-48
2022/03/03 01:57:57;;;;;;;21.60;12.67;;;1.10;99.90;;;;;;6338978;22;20605;-49
2022/03/03 02:00:24;;;;;;;26.23;12.73;;;1.10;99.90;;;;;;6337397;22;20397;-47
2022/03/03 02:02:49;;;;;;;23.10;12.40;;;1.10;99.90;;;;;;6337565;22;20594;-49
2022/03/03 02:05:15;;;;;;;19.03;12.43;;;1.10;99.90;;;;;;6338878;22;20155;-48
2022/03/03 02:07:41;;;;;;;26.47;13.00;;;1.00;99.90;;;;;;6338897;22;20168;-47
2022/03/03 02:10:07;;;;;;;17.83;12.13;;;1.00;99.90;;;;;;6337490;22;20180;-48
2022/03/03 02:12:33;;;;;;;23.83;13.00;;;0.90;99.90;;;;;;6339329;22;20151;-48
2022/03/03 02:14:59;;;;;;;18.03;12.10;;;0.90;99.90;;;;;;6339421;22;20882;-49
2022/03/03 02:17:25;;;;;;;20.10;12.37;;;0.90;99.90;;;;;;6340674;22;20172;-48
2022/03/03 02:19:50;;;;;;;22.73;11.83;;;0.80;99.90;;;;;;6340741;22;20487;-48
2022/03/03 02:22:16;;;;;;;22.93;12.40;;;0.80;99.90;;;;;;6339884;22;20174;-48
2022/03/03 02:24:43;;;;;;;26.43;13.40;;;0.80;99.90;;;;;;6340622;22;20200;-49
2022/03/03 02:27:10;;;;;;;19.73;12.67;;;0.70;99.90;;;;;;6340666;22;20175;-48
2022/03/03 02:29:36;;;;;;;26.63;13.60;;;0.70;99.90;;;;;;6340269;22;20429;-49
2022/03/03 02:32:04;;;;;;;20.67;12.33;;;0.70;99.90;;;;;;6338772;22;20207;-48
2022/03/03 02:34:31;;;;;;;21.53;12.60;;;0.70;99.90;;;;;;6338925;22;20418;-48
2022/03/03 02:36:56;;;;;;;17.93;11.47;;;0.60;99.90;;;;;;6340573;22;20435;-49
2022/03/03 02:39:22;;;;;;;29.83;11.83;;;0.60;99.90;;;;;;6340761;22;20373;-49
2022/03/03 02:41:48;;;;;;;17.70;11.10;;;0.50;99.90;;;;;;6312842;22;20175;-50
2022/03/03 02:44:13;;;;;;;19.83;11.80;;;0.50;99.90;;;;;;6340788;22;20174;-47
2022/03/03 02:46:39;;;;;;;20.03;11.53;;;0.40;99.90;;;;;;6338747;22;20185;-49
2022/03/03 02:49:05;;;;;;;22.17;12.07;;;0.40;99.90;;;;;;6340236;22;20170;-50
2022/03/03 02:51:30;;;;;;;24.00;12.57;;;0.30;99.90;;;;;;6338777;22;20159;-49
2022/03/03 02:53:56;;;;;;;18.40;11.40;;;0.40;99.90;;;;;;6340286;22;20153;-50
2022/03/03 02:56:22;;;;;;;23.03;12.43;;;0.30;99.90;;;;;;6340538;22;20152;-48
2022/03/03 02:58:47;;;;;;;20.87;11.70;;;0.30;99.90;;;;;;6341177;22;20186;-48
2022/03/03 03:01:13;;;;;;;20.57;11.80;;;0.30;99.90;;;;;;6338717;22;20480;-50
2022/03/03 03:03:39;;;;;;;18.30;11.63;;;1.80;99.90;;;;;;6340629;22;20157;-49
2022/03/03 03:06:05;;;;;;;25.00;11.23;;;0.20;99.90;;;;;;6340060;22;20375;-48
2022/03/03 03:08:31;;;;;;;22.23;11.27;;;0.20;99.90;;;;;;6340066;22;20175;-49
2022/03/03 03:10:57;;;;;;;16.30;10.87;;;0.20;99.90;;;;;;6338606;22;20208;-49
2022/03/03 03:13:23;;;;;;;16.47;10.20;;;0.20;99.90;;;;;;6338562;22;20667;-50
2022/03/03 03:15:48;;;;;;;24.87;11.10;;;0.20;99.90;;;;;;6338599;22;20217;-49
2022/03/03 03:18:21;;;;;;;20.13;11.87;;;0.10;99.90;;;;;;6340256;22;20176;-48
2022/03/03 03:20:49;;;;;;;23.47;10.80;;;0.10;99.90;;;;;;6340307;22;20281;-49
2022/03/03 03:23:17;;;;;;;18.83;11.27;;;0.10;99.90;;;;;;6340867;22;20373;-49
2022/03/03 03:25:43;;;;;;;21.10;11.50;;;0.00;99.90;;;;;;6340109;22;20694;-49
2022/03/03 03:28:13;;;;;;;19.90;11.07;;;0.00;99.90;;;;;;6340124;22;20496;-50
2022/03/03 03:30:40;;;;;;;18.23;10.77;;;-0.10;99.90;;;;;;6338301;22;20161;-49
2022/03/03 03:33:06;;;;;;;18.63;11.30;;;-0.10;99.90;;;;;;6340142;22;20702;-48
2022/03/03 03:35:32;;;;;;;17.23;10.57;;;-0.20;99.90;;;;;;6338150;22;20384;-49
2022/03/03 03:37:58;;;;;;;15.70;8.83;;;-0.20;99.90;;;;;;6338836;22;20229;-49
2022/03/03 03:40:24;;;;;;;19.87;11.30;;;-0.20;99.90;;;;;;6340284;22;20855;-49
2022/03/03 03:42:49;;;;;;;19.97;11.50;;;-0.20;99.90;;;;;;6340591;22;20174;-48
2022/03/03 03:45:16;;;;;;;17.70;10.53;;;-0.20;99.90;;;;;;6340461;22;20151;-48
2022/03/03 03:47:42;;;;;;;19.77;11.37;;;-0.20;99.90;;;;;;6340582;22;20503;-49
2022/03/03 03:50:09;;;;;;;23.83;11.20;;;-0.20;99.90;;;;;;6340054;22;20962;-49
2022/03/03 03:52:36;;;;;;;18.83;11.57;;;-0.20;99.90;;;;;;6338531;22;20389;-48
2022/03/03 03:55:03;;;;;;;19.60;11.73;;;-0.20;99.90;;;;;;6340155;22;20912;-49
2022/03/03 03:57:29;;;;;;;21.97;11.67;;;-0.30;99.90;;;;;;6338521;22;20408;-48
2022/03/03 03:59:54;;;;;;;24.20;11.60;;;-0.30;99.90;;;;;;6338308;22;20388;-47
2022/03/03 04:02:20;;;;;;;21.03;12.13;;;-0.40;99.90;;;;;;6338338;22;20216;-47
2022/03/03 04:04:45;;;;;;;20.20;12.13;;;-0.40;99.90;;;;;;6339878;22;20593;-49
2022/03/03 04:07:11;;;;;;;23.37;11.67;;;-0.40;99.90;;;;;;6339702;22;20253;-49
2022/03/03 04:09:37;;;;;;;22.80;12.33;;;-0.40;99.90;;;;;;6339670;22;20253;-48
2022/03/03 04:12:06;;;;;;;20.57;13.27;;;-0.50;99.90;;;;;;6338294;22;20161;-47
2022/03/03 04:14:36;;;;;;;23.17;13.33;;;-0.50;99.90;;;;;;6340093;22;20494;-44
2022/03/03 04:17:07;;;;;;;23.17;13.00;;;-0.50;99.90;;;;;;6339573;22;20483;-44
2022/03/03 04:19:33;;;;;;;24.50;12.27;;;-0.60;99.90;;;;;;6337908;22;20933;-45
2022/03/03 04:22:03;;;;;;;22.07;12.20;;;-0.60;99.90;;;;;;6339988;22;20383;-45
2022/03/03 04:24:29;;;;;;;25.17;12.03;;;-0.60;99.90;;;;;;6306435;22;20227;-46
2022/03/03 04:26:56;;;;;;;21.13;12.50;;;-0.60;99.90;;;;;;6311940;22;20408;-45
2022/03/03 04:29:22;;;;;;;19.83;12.57;;;-0.70;99.90;;;;;;6339194;22;20236;-45
2022/03/03 04:31:51;;;;;;;18.80;12.57;;;-0.70;99.90;;;;;;6339501;22;20372;-45
2022/03/03 04:34:16;;;;;;;22.47;12.40;;;-0.80;99.90;;;;;;6339669;22;20376;-44
2022/03/03 04:36:42;;;;;;;21.27;12.07;;;-0.80;99.90;;;;;;6339424;22;20398;-48
2022/03/03 04:39:07;;;;;;;20.60;12.03;;;-0.90;99.90;;;;;;6339790;22;20161;-48
2022/03/03 04:41:33;;;;;;;19.20;12.33;;;-0.90;99.90;;;;;;6339958;22;20249;-48
2022/03/03 04:43:59;;;;;;;24.83;12.40;;;-1.00;99.90;;;;;;6339518;22;20165;-49
2022/03/03 04:46:24;;;;;;;25.13;12.33;;;-1.00;99.90;;;;;;6337918;22;20164;-49
2022/03/03 04:48:50;;;;;;;23.40;13.17;;;-1.00;99.90;;;;;;6337841;22;20223;-45
2022/03/03 04:51:15;;;;;;;24.60;13.20;;;-1.00;99.90;;;;;;6339499;22;20160;-49
2022/03/03 04:53:41;;;;;;;22.73;13.23;;;-1.00;99.90;;;;;;6339598;22;20218;-49
2022/03/03 04:56:07;;;;;;;22.63;12.27;;;-1.00;99.90;;;;;;6339724;22;20153;-48
2022/03/03 04:58:36;;;;;;;23.20;12.37;;;-1.00;99.90;;;;;;6339611;22;20174;-48
2022/03/03 05:01:06;;;;;;;21.60;12.73;;;-1.10;99.90;;;;;;6339626;22;20164;-47
2022/03/03 05:03:32;;;;;;;21.37;12.60;;;-1.10;99.90;;;;;;6339637;22;20447;-48
2022/03/03 05:05:58;;;;;;;25.87;13.50;;;-1.10;99.90;;;;;;6337920;22;20760;-48
2022/03/03 05:08:24;;;;;;;22.70;13.00;;;-1.10;99.90;;;;;;6337719;22;20181;-49
2022/03/03 05:10:50;;;;;;;27.10;14.07;;;-1.10;99.90;;;;;;6339708;22;20395;-48
2022/03/03 05:13:17;;;;;;;22.13;12.97;;;-1.10;99.90;;;;;;6339690;22;20673;-49
2022/03/03 05:15:43;;;;;;;20.93;12.83;;;-1.10;99.90;;;;;;6340296;22;20153;-49
2022/03/03 05:18:09;;;;;;;21.27;12.60;;;-1.10;99.90;;;;;;6337740;22;20404;-49
2022/03/03 05:20:34;;;;;;;22.50;12.40;;;-1.10;99.90;;;;;;6337731;22;20162;-48
2022/03/03 05:23:00;;;;;;;21.93;12.97;;;-1.10;99.90;;;;;;6341292;22;20532;-49
2022/03/03 05:25:51;;;;;;;19.10;11.50;;;-1.20;99.90;;;;;;6339305;22;20184;-50
2022/03/03 05:28:17;;;;;;;18.50;11.40;;;-1.20;99.90;;;;;;6339760;22;20212;-49
2022/03/03 05:30:43;;;;;;;24.13;13.17;;;-1.20;99.90;;;;;;6339454;22;20367;-48
2022/03/03 05:33:09;;;;;;;20.80;12.70;;;-1.30;99.90;;;;;;6311930;22;20149;-48
2022/03/03 05:35:39;;;;;;;20.73;11.97;;;-1.30;99.90;;;;;;6339864;22;20156;-48
2022/03/03 05:38:06;;;;;;;23.83;11.67;;;-1.40;99.90;;;;;;6311838;22;20173;-47
2022/03/03 05:40:32;;;;;;;26.83;13.53;;;-1.40;99.90;;;;;;6311861;22;20387;-48
2022/03/03 05:42:58;;;;;;;21.93;11.87;;;-1.50;99.90;;;;;;6339338;22;20372;-47
2022/03/03 05:45:24;;;;;;;20.07;12.43;;;-1.50;99.90;;;;;;6339464;22;20150;-48
2022/03/03 05:47:51;;;;;;;25.70;12.67;;;-1.50;99.90;;;;;;6343714;22;20210;-49
2022/03/03 05:50:17;;;;;;;20.87;12.53;;;-1.50;99.90;;;;;;6346667;22;20391;-47
2022/03/03 05:52:43;;;;;;;20.33;12.20;;;-1.60;99.90;;;;;;6319140;22;20857;-47
2022/03/03 05:55:09;;;;;;;22.13;12.53;;;-1.60;99.90;;;;;;6318855;22;20202;-47
2022/03/03 05:57:47;;;;;;;25.53;13.47;;;-1.60;99.90;;;;;;6318979;22;20173;-48
2022/03/03 06:00:17;;;;;;;26.07;13.57;;;-1.60;99.90;;;;;;6318626;22;20194;-45
2022/03/03 06:02:50;;;;;;;21.60;12.87;;;-1.60;99.90;;;;;;6314424;22;20703;-46
2022/03/03 06:05:27;;;;;;;24.73;13.67;;;-1.60;99.90;;;;;;6341311;22;20711;-45
2022/03/03 06:08:04;;;;;;;24.10;15.20;;;-1.60;99.90;;;;;;6339501;22;20802;-44
2022/03/03 06:10:34;;;;;;;31.07;16.27;;;-1.60;99.90;;;;;;6339383;22;20464;-44
2022/03/03 06:13:50;;;;;;;25.93;15.30;;;-1.50;99.90;;;;;;6341297;22;20786;-43
2022/03/03 06:16:18;;;;;;;23.00;14.17;;;-1.50;99.90;;;;;;6320731;22;20387;-43
2022/03/03 06:18:47;;;;;;;23.80;12.97;;;-1.50;99.90;;;;;;6341033;22;20421;-44
2022/03/03 06:21:14;;;;;;;23.10;14.23;;;-1.60;99.90;;;;;;6339364;22;20875;-45
2022/03/03 06:23:40;;;;;;;22.63;14.10;;;-1.60;99.90;;;;;;6340485;22;20376;-45
2022/03/03 06:26:11;;;;;;;26.77;15.83;;;-1.60;99.90;;;;;;6340993;22;20462;-45
2022/03/03 06:28:38;;;;;;;26.13;15.10;;;-1.60;99.90;;;;;;6340398;22;20223;-42
2022/03/03 06:31:07;;;;;;;22.70;14.57;;;-1.60;99.90;;;;;;6341123;22;20674;-44
2022/03/03 06:33:34;;;;;;;21.27;13.87;;;-1.60;99.90;;;;;;6340948;22;20383;-44
2022/03/03 06:36:00;;;;;;;22.93;14.63;;;-1.50;99.90;;;;;;6340930;22;20372;-44
2022/03/03 06:38:26;;;;;;;27.70;15.83;;;-1.50;99.90;;;;;;6340466;22;20396;-45
2022/03/03 06:40:53;;;;;;;28.90;14.73;;;-1.50;99.90;;;;;;6338803;22;20376;-45
2022/03/03 06:43:21;;;;;;;22.33;14.43;;;-1.50;99.90;;;;;;6339017;22;20233;-43
2022/03/03 06:45:47;;;;;;;23.97;13.87;;;-1.50;99.90;;;;;;6339384;22;20709;-45
2022/03/03 06:48:13;;;;;;;20.20;12.30;;;-1.50;99.90;;;;;;6340389;22;20419;-45
2022/03/03 06:50:42;;;;;;;24.80;13.73;;;-1.40;99.90;;;;;;6338856;22;20158;-45
2022/03/03 06:53:08;;;;;;;22.90;14.00;;;-1.40;99.90;;;;;;6340481;22;20529;-45
2022/03/03 06:55:35;;;;;;;24.90;13.77;;;-1.40;99.90;;;;;;6339046;22;20379;-46
2022/03/03 06:58:02;;;;;;;24.00;14.13;;;-1.40;99.90;;;;;;6340630;22;20403;-46
2022/03/03 07:00:34;;;;;;;28.43;14.13;;;-1.30;99.90;;;;;;6312939;22;20901;-45
2022/03/03 07:03:04;;;;;;;23.43;14.00;;;-1.30;99.90;;;;;;6341497;22;20656;-45
2022/03/03 07:08:49;;;;;;;26.77;14.80;;;-1.20;99.90;;;;;;6348298;22;20427;-47
2022/03/03 07:11:16;;;;;;;25.50;15.10;;;-1.20;99.90;;;;;;6340245;22;20409;-48
2022/03/03 07:13:43;;;;;;;24.77;12.87;;;-1.20;99.90;;;;;;6340815;22;20375;-48
2022/03/03 07:16:45;;;;;;;28.60;14.93;;;-1.20;99.90;;;;;;6338622;22;20387;-46
2022/03/03 07:19:26;;;;;;;25.53;14.93;;;-1.10;99.90;;;;;;6340520;22;20867;-48
2022/03/03 07:22:09;;;;;;;26.87;15.03;;;-1.00;99.90;;;;;;6343122;22;20686;-47
2022/03/03 07:24:45;;;;;;;24.53;15.17;;;-1.10;99.90;;;;;;6342460;22;20403;-46
2022/03/03 07:27:18;;;;;;;26.80;15.80;;;-1.00;99.90;;;;;;6344324;22;20938;-48
2022/03/03 07:29:49;;;;;;;24.87;15.20;;;-0.90;99.90;;;;;;6316175;22;20448;-47
2022/03/03 07:32:18;;;;;;;25.63;14.17;;;-0.80;99.90;;;;;;6342175;22;20380;-48
2022/03/03 07:34:51;;;;;;;29.53;14.30;;;-0.70;99.90;;;;;;6344239;22;20473;-47
2022/03/03 07:37:22;;;;;;;24.03;13.67;;;-0.60;99.90;;;;;;6344445;22;20865;-48
2022/03/03 07:39:48;;;;;;;23.47;14.33;;;-0.50;99.90;;;;;;6344584;22;20383;-48
2022/03/03 07:42:18;;;;;;;21.80;13.37;;;-0.40;99.90;;;;;;6344375;22;20756;-47
2022/03/03 07:44:45;;;;;;;22.93;13.80;;;-0.30;99.90;;;;;;6344197;22;20156;-47
2022/03/03 07:47:11;;;;;;;25.67;15.17;;;-0.20;99.90;;;;;;6344213;22;20395;-47
2022/03/03 07:49:40;;;;;;;26.37;13.93;;;0.00;99.90;;;;;;6342458;22;20477;-48
2022/03/03 07:52:06;;;;;;;28.97;13.63;;;0.10;99.90;;;;;;6344030;22;20160;-48
2022/03/03 07:54:33;;;;;;;28.23;14.90;;;0.20;99.90;;;;;;6343935;22;20917;-47
2022/03/03 07:57:01;;;;;;;23.07;13.00;;;0.30;99.90;;;;;;6344154;22;20466;-48
2022/03/03 07:59:32;;;;;;;28.13;13.60;;;0.50;99.90;;;;;;6344249;22;20458;-47
2022/03/03 08:02:01;;;;;;;23.93;14.80;;;0.60;99.90;;;;;;6344601;22;20354;-47
2022/03/03 08:04:29;;;;;;;23.43;13.60;;;0.80;99.90;;;;;;6344519;22;20437;-47
2022/03/03 08:07:05;;;;;;;27.87;14.27;;;0.90;99.90;;;;;;6316694;22;20396;-47
2022/03/03 08:09:32;;;;;;;25.33;14.20;;;1.00;99.90;;;;;;6343562;22;20415;-47
2022/03/03 08:12:02;;;;;;;25.67;13.23;;;1.20;99.90;;;;;;6343737;22;20380;-47
2022/03/03 08:14:29;;;;;;;25.00;14.67;;;1.40;99.90;;;;;;6343839;22;20372;-48
2022/03/03 08:16:55;;;;;;;25.23;12.83;;;1.60;99.90;;;;;;6344747;22;20471;-47
2022/03/03 08:19:21;;;;;;;24.00;13.33;;;1.70;99.90;;;;;;6344570;22;20837;-47
2022/03/03 08:21:48;;;;;;;24.67;14.70;;;1.80;99.90;;;;;;6344027;22;20165;-46
2022/03/03 08:24:14;;;;;;;24.93;15.17;;;2.00;99.90;;;;;;6343222;22;20481;-47
2022/03/03 08:26:42;;;;;;;24.97;13.87;;;2.10;99.90;;;;;;6342892;22;20489;-46
2022/03/03 08:29:09;;;;;;;26.77;13.70;;;2.20;99.90;;;;;;6343007;22;20212;-47
2022/03/03 08:31:38;;;;;;;20.97;12.53;;;2.30;99.90;;;;;;6342411;22;20690;-48
2022/03/03 08:34:16;;;;;;;26.87;15.53;;;2.40;99.90;;;;;;6343860;22;20364;-47
2022/03/03 08:36:57;;;;;;;22.60;12.73;;;2.50;99.90;;;;;;6343737;22;20414;-49
2022/03/03 08:39:28;;;;;;;20.00;11.87;;;2.70;99.90;;;;;;6344932;22;20360;-47
2022/03/03 08:42:01;;;;;;;24.97;14.93;;;2.80;99.90;;;;;;6344126;22;20403;-47
2022/03/03 08:44:34;;;;;;;24.17;15.00;;;2.90;99.90;;;;;;6344737;22;20432;-48
2022/03/03 08:47:03;;;;;;;27.17;14.37;;;3.10;99.90;;;;;;6344181;22;20396;-47
2022/03/03 08:49:33;;;;;;;26.40;14.87;;;3.20;99.90;;;;;;6344242;22;20413;-48
2022/03/03 08:52:01;;;;;;;24.40;14.00;;;3.30;99.90;;;;;;6345510;22;20397;-47
2022/03/03 08:54:28;;;;;;;22.03;14.10;;;3.40;99.90;;;;;;6318976;22;20385;-47
2022/03/03 08:56:54;;;;;;;27.07;14.27;;;3.60;99.90;;;;;;6346180;22;20775;-47
2022/03/03 08:59:20;;;;;;;25.70;14.97;;;3.70;99.90;;;;;;6345754;22;20374;-47
2022/03/03 09:01:46;;;;;;;25.17;13.97;;;3.70;99.90;;;;;;6346044;22;20231;-48
2022/03/03 09:04:12;;;;;;;22.37;14.10;;;3.80;99.90;;;;;;6345938;22;20156;-48
2022/03/03 09:06:38;;;;;;;22.47;13.13;;;3.90;99.90;;;;;;6344293;22;20170;-48
2022/03/03 09:09:03;;;;;;;15.60;9.63;;;4.00;99.90;;;;;;6344822;22;20180;-49
2022/03/03 09:11:29;;;;;;;26.83;13.70;;;4.10;99.90;;;;;;6346306;22;20594;-47
2022/03/03 09:13:55;;;;;;;23.90;14.53;;;4.20;99.90;;;;;;6346039;22;20149;-48
2022/03/03 09:16:21;;;;;;;25.40;14.90;;;4.30;99.90;;;;;;6341132;22;20168;-46
2022/03/03 09:18:48;;;;;;;27.10;14.90;;;4.40;99.90;;;;;;6342044;22;20153;-47
2022/03/03 09:21:16;;;;;;;26.37;14.93;;;4.50;99.90;;;;;;6343082;22;20223;-47
2022/03/03 09:23:42;;;;;;;29.90;14.13;;;4.60;99.90;;;;;;6339935;22;20523;-45
2022/03/03 09:26:08;;;;;;;18.57;12.13;;;4.70;99.90;;;;;;6337944;22;20161;-45
2022/03/03 09:28:34;;;;;;;21.00;14.13;;;4.80;99.90;;;;;;6337587;22;20197;-44
2022/03/03 09:31:00;;;;;;;17.70;9.70;;;4.90;99.90;;;;;;6339435;22;20153;-45
2022/03/03 09:33:26;;;;;;;24.00;13.53;;;5.00;99.90;;;;;;6339112;22;20145;-43
2022/03/03 09:35:51;;;;;;;24.90;14.13;;;5.10;99.90;;;;;;6339211;22;20489;-45
2022/03/03 09:38:17;;;;;;;22.93;14.80;;;5.10;99.90;;;;;;6339073;22;20185;-44
2022/03/03 09:40:43;;;;;;;19.77;13.00;;;5.30;99.90;;;;;;6338960;22;20168;-44
2022/03/03 09:43:09;;;;;;;26.57;14.90;;;5.30;99.90;;;;;;6337598;22;20157;-45
2022/03/03 09:45:37;;;;;;;20.53;14.17;;;5.40;99.90;;;;;;6340446;22;20155;-44
2022/03/03 09:48:09;;;;;;;24.07;14.17;;;5.50;99.90;;;;;;6339660;22;20181;-45
2022/03/03 09:50:37;;;;;;;20.30;14.10;;;5.60;99.90;;;;;;6337914;22;20152;-45
2022/03/03 09:53:08;;;;;;;22.13;14.50;;;5.70;99.90;;;;;;6339373;22;20152;-44
2022/03/03 09:55:34;;;;;;;23.27;13.50;;;5.80;99.90;;;;;;6339640;22;20548;-45
2022/03/03 09:58:00;;;;;;;22.40;13.90;;;5.90;99.90;;;;;;6339948;22;20176;-45
2022/03/03 10:00:26;;;;;;;25.40;14.47;;;6.00;99.90;;;;;;6339494;22;20212;-45
2022/03/03 10:02:58;;;;;;;22.80;13.93;;;6.00;99.90;;;;;;6338983;22;20241;-46
2022/03/03 10:05:47;;;;;;;24.63;13.60;;;6.10;99.90;;;;;;6337318;22;20491;-42
2022/03/03 10:08:18;;;;;;;22.23;13.97;;;6.20;99.90;;;;;;6338804;22;20666;-44
2022/03/03 10:10:54;;;;;;;23.70;13.00;;;6.30;99.90;;;;;;6338597;22;20146;-44
2022/03/03 10:13:20;;;;;;;21.37;13.93;;;6.40;99.90;;;;;;6338958;22;20208;-45
2022/03/03 10:15:51;;;;;;;24.20;14.17;;;6.50;99.90;;;;;;6339044;22;20152;-42
2022/03/03 10:18:18;;;;;;;22.23;13.93;;;6.70;99.90;;;;;;6339081;22;20653;-45
2022/03/03 10:20:58;;;;;;;21.53;14.63;;;6.70;99.90;;;;;;6338851;22;20485;-45
2022/03/03 10:23:39;;;;;;;23.80;13.20;;;6.80;99.90;;;;;;6338962;22;20177;-45
2022/03/03 10:26:08;;;;;;;24.37;14.37;;;6.90;99.90;;;;;;6337436;22;20165;-45
2022/03/03 10:28:36;;;;;;;23.77;13.60;;;7.10;99.90;;;;;;6338992;22;20189;-44
2022/03/03 10:31:10;;;;;;;15.93;11.67;;;7.20;99.90;;;;;;6339000;22;20163;-43
2022/03/03 10:33:38;;;;;;;20.97;13.07;;;7.30;99.90;;;;;;6339425;22;20152;-47
2022/03/03 10:36:14;;;;;;;22.07;13.83;;;7.30;99.90;;;;;;6340989;22;20158;-46
2022/03/03 10:38:47;;;;;;;20.17;13.47;;;7.40;99.90;;;;;;6341366;22;20243;-45
2022/03/03 10:41:40;;;;;;;18.87;12.67;;;7.50;99.90;;;;;;6341056;22;20620;-45
2022/03/03 10:44:12;;;;;;;19.67;13.23;;;7.70;99.90;;;;;;6341608;22;20145;-44
2022/03/03 10:47:03;;;;;;;20.63;13.10;;;7.80;99.90;;;;;;6339242;22;20225;-44
2022/03/03 10:49:29;;;;;;;15.97;12.97;;;7.90;99.90;;;;;;6340564;22;20183;-45
2022/03/03 10:52:27;;;;;;;21.40;13.40;;;7.90;99.90;;;;;;6340918;22;20151;-45
2022/03/03 10:55:06;;;;;;;18.77;13.90;;;8.10;99.90;;;;;;6340297;22;20221;-46
2022/03/03 10:57:44;;;;;;;24.87;13.00;;;8.20;99.90;;;;;;6340548;22;20174;-45
2022/03/03 11:00:23;;;;;;;21.90;13.10;;;8.30;99.90;;;;;;6340757;22;20518;-45
2022/03/03 11:02:51;;;;;;;17.03;12.70;;;8.40;99.90;;;;;;6340678;22;20477;-46
2022/03/03 11:05:19;;;;;;;21.30;13.90;;;8.50;99.90;;;;;;6340325;22;20157;-45
2022/03/03 11:07:47;;;;;;;19.37;13.30;;;8.60;99.90;;;;;;6340223;22;20196;-45
2022/03/03 11:10:15;;;;;;;17.00;12.40;;;8.70;99.90;;;;;;6340215;22;20180;-46
2022/03/03 11:12:43;;;;;;;19.57;13.33;;;8.80;99.90;;;;;;6340387;22;20493;-45
2022/03/03 11:15:20;;;;;;;18.67;13.43;;;8.80;99.90;;;;;;6339524;22;20227;-45
2022/03/03 11:17:49;;;;;;;20.77;13.37;;;8.90;99.90;;;;;;6338965;22;20173;-44
2022/03/03 11:20:17;;;;;;;17.07;13.17;;;9.00;99.90;;;;;;6340365;22;20160;-44
2022/03/03 11:22:44;;;;;;;22.57;15.67;;;9.10;99.90;;;;;;6341206;22;20160;-44
2022/03/03 11:25:14;;;;;;;23.60;13.83;;;9.20;99.90;;;;;;6340133;22;20156;-44
2022/03/03 11:27:42;;;;;;;28.83;14.23;;;9.30;99.90;;;;;;6338257;22;20227;-45
2022/03/03 11:30:30;;;;;;;19.73;13.67;;;9.40;99.90;;;;;;6338147;22;20638;-45
2022/03/03 11:33:21;;;;;;;20.40;13.30;;;9.50;99.90;;;;;;6340493;22;20572;-45
2022/03/03 11:35:59;;;;;;;17.33;12.77;;;9.60;99.90;;;;;;6338168;22;20199;-45
2022/03/03 11:38:27;;;;;;;17.10;13.13;;;9.70;99.90;;;;;;6339909;22;20170;-45
2022/03/03 11:40:56;;;;;;;15.77;11.87;;;9.90;99.90;;;;;;6338384;22;20211;-46
2022/03/03 11:43:22;;;;;;;19.50;14.17;;;10.00;99.90;;;;;;6339845;22;20154;-45
2022/03/03 11:45:51;;;;;;;21.43;14.37;;;10.10;99.90;;;;;;6339725;22;20196;-44
2022/03/03 11:48:20;;;;;;;19.43;12.73;;;10.30;99.90;;;;;;6338355;22;20204;-44
2022/03/03 11:50:47;;;;;;;16.87;12.87;;;10.40;99.90;;;;;;6338393;22;20157;-45
2022/03/03 11:53:22;;;;;;;19.03;13.10;;;10.50;99.90;;;;;;6340089;22;20157;-46
2022/03/03 11:55:50;;;;;;;20.77;14.27;;;10.60;99.90;;;;;;6341412;22;20168;-47
2022/03/03 11:58:21;;;;;;;16.87;13.13;;;10.70;99.90;;;;;;6340441;22;20626;-46
2022/03/03 12:01:08;;;;;;;23.40;13.53;;;10.70;99.90;;;;;;6341110;22;20465;-47
2022/03/03 12:04:01;;;;;;;17.63;13.20;;;10.80;99.90;;;;;;6340012;22;20617;-47
2022/03/03 12:06:43;;;;;;;16.77;13.07;;;11.00;99.90;;;;;;6339386;22;20248;-45
2022/03/03 12:09:19;;;;;;;17.83;12.20;;;11.20;99.90;;;;;;6339831;22;20617;-45
2022/03/03 12:11:45;;;;;;;18.97;13.23;;;11.30;99.90;;;;;;6338298;22;20151;-45
2022/03/03 12:14:39;;;;;;;25.50;14.37;;;11.40;99.90;;;;;;6338188;22;20150;-46
2022/03/03 12:17:33;;;;;;;24.13;13.00;;;11.40;99.90;;;;;;6340205;22;20615;-50
2022/03/03 12:20:24;;;;;;;25.37;13.33;;;11.20;99.90;;;;;;6338285;22;20248;-47
2022/03/03 12:23:02;;;;;;;25.33;14.17;;;11.10;99.90;;;;;;6326825;22;20602;-46
2022/03/03 12:26:00;;;;;;;18.57;11.93;;;11.00;99.90;;;;;;6339720;22;20157;-47
2022/03/03 12:28:33;;;;;;;25.63;13.50;;;11.00;99.90;;;;;;6340438;22;20173;-48
2022/03/03 12:30:59;;;;;;;31.10;17.40;;;11.20;99.90;;;;;;6339889;22;20186;-46
2022/03/03 12:33:27;;;;;;;22.70;13.47;;;11.20;99.90;;;;;;6339625;22;20153;-46
2022/03/03 12:36:01;;;;;;;22.70;13.30;;;11.20;99.90;;;;;;6339560;22;20149;-46
2022/03/03 12:38:28;;;;;;;19.93;12.17;;;11.20;99.90;;;;;;6339927;22;20556;-45
2022/03/03 12:40:54;;;;;;;23.03;11.83;;;11.30;99.90;;;;;;6337949;22;20669;-47
2022/03/03 12:43:21;;;;;;;21.50;14.07;;;11.40;99.90;;;;;;6339623;22;20185;-47
2022/03/03 12:45:48;;;;;;;14.87;11.90;;;11.50;99.90;;;;;;6339914;22;20160;-47